This is the latest recevied weather packets stored in our database for station/object AE2A-13. If no packets are shown the sender has not sent any weather packets the latest 10 day(s).
| Time | Temp. | Humidity | Pressure | Rain* | Wind** | Luminosity | Snow |
|---|---|---|---|---|---|---|---|
| 1778178303 | 34.44° C | 46% | 1015.4 hPa | 0 mm | - | - | - |
| 1778177703 | 34.44° C | 48% | 1015.5 hPa | 0 mm | - | - | - |
| 1778177403 | 34.44° C | 48% | 1015.6 hPa | 0 mm | - | - | - |
| 1778176803 | 34.44° C | 50% | 1015.9 hPa | 0 mm | - | - | - |
| 1778176504 | 33.89° C | 49% | 1016 hPa | 0 mm | - | - | - |
| 1778169004 | 31.11° C | 63% | 1016.7 hPa | 0 mm | - | - | - |
| 1778167503 | 30° C | 65% | 1017.1 hPa | 0 mm | - | - | - |
| 1778165703 | 30° C | 67% | 1017.2 hPa | 0 mm | - | - | - |
| 1778164803 | 29.44° C | 71% | 1017.3 hPa | 0 mm | - | - | - |
| 1778163903 | 28.33° C | 73% | 1017.3 hPa | 0 mm | - | - | - |
| 1778163303 | 27.78° C | 76% | 1017.2 hPa | 0 mm | - | - | - |
| 1778162704 | 27.78° C | 76% | 1017.2 hPa | 0 mm | - | - | - |
| 1778160303 | 26.67° C | 80% | 1017.2 hPa | 0 mm | - | - | - |
| 1778159704 | 26.11° C | 82% | 1017.2 hPa | 0 mm | - | - | - |
| 1778159404 | 26.11° C | 83% | 1017.1 hPa | 0 mm | - | - | - |
| 1778157304 | 23.89° C | 91% | 1017.3 hPa | 0 mm | - | - | - |
| 1778155504 | 22.22° C | 95% | 1017.3 hPa | 0 mm | - | - | - |
| 1778154904 | 21.67° C | 95% | 1017.4 hPa | 0 mm | - | - | - |
| 1778154604 | 21.11° C | 96% | 1017.3 hPa | 0 mm | - | - | - |
| 1778151903 | 19.44° C | 95% | 1016.9 hPa | 0 mm | - | - | - |
| 1778148004 | 20° C | 93% | 1016.2 hPa | 0 mm | - | - | - |
| 1778142904 | 20° C | 91% | 1015.4 hPa | 0 mm | - | - | - |
| 1778142004 | 20° C | 90% | 1015.6 hPa | 0 mm | - | - | - |
| 1778138404 | 20° C | 91% | 1015.7 hPa | 0 mm | - | - | - |
| 1778136903 | 20° C | 91% | 1016.2 hPa | 0 mm | - | - | - |
* Rain latest hour (hover to see other rain measurements)
** Current wind speed in m/s (hover to see current wind gust speed)